Najaf, Iraq
Current Conditions -  °F | °C
As of 7:00 PM on Saturday 25 Oct 2014 (Local Time) from ORNI Reporting Station
Clear Clear  
Wind Chill: 25°   Ceiling: Unl
Heat Index: 26°   Visibility: 4mi
Dew Point: 11°   Wind: 0mph
Humidity: 41%   Direction: NA
Pressure: 29.94"   Gusts: NA
Location:  31.98°N, 44.32°E
Report Text: ORNI 251600Z 00000KT 7000 NSC 25/11 Q1014 NOSIG
Loading
Personal Weather Stations






























Interactive Weather Map
Tropical Storm Tracking
New forecast layout! Learn more

10-Day Weather Forecast

Advertisements
Track Severe Weather on mobile